Time;durP1;ratioP1;P1;durP2;ratioP2;P2;SDS_P1;SDS_P2;PMS_P1;PMS_P2;Temp;Humidity;BMP_temperature;BMP_pressure;BME280_temperature;BME280_humidity;BME280_pressure;Samples;Min_cycle;Max_cycle;Signal;HPM_P1;HPM_P2
2022/08/22 00:02:09;;;;;;;;;;;16.20;99.90;;;14.91;100.00;95515.16;10351057;28;2691;-74
2022/08/22 00:07:13;;;;;;;;;;;16.10;99.90;;;14.83;100.00;95518.59;10353531;28;2615;-73
2022/08/22 00:12:16;;;;;;;;;;;16.10;99.90;;;14.93;100.00;95510.22;10345793;28;2635;-74
2022/08/22 00:17:19;;;;;;;;;;;16.00;99.90;;;15.20;100.00;95516.59;10349010;28;2168;-75
2022/08/22 00:22:22;;;;;;;;;;;16.20;99.90;;;15.07;100.00;95515.56;10351484;28;2588;-75
2022/08/22 00:27:24;;;;;;;;;;;16.20;99.90;;;14.95;100.00;95524.25;10349343;28;2169;-76
2022/08/22 00:32:27;;;;;;;;;;;16.10;99.90;;;14.95;100.00;95521.56;10352244;28;2572;-75
2022/08/22 00:37:30;;;;;;;;;;;16.10;99.90;;;14.95;100.00;95516.16;10348652;28;2647;-74
2022/08/22 00:42:33;;;;;;;;;;;16.10;99.90;;;14.96;100.00;95515.03;10347687;28;2635;-74
2022/08/22 00:47:36;;;;;;;;;;;16.10;99.90;;;15.04;100.00;95513.50;10354509;28;2501;-77
2022/08/22 00:52:39;;;;;;;;;;;16.10;99.90;;;15.06;100.00;95517.47;10344447;28;2588;-74
2022/08/22 00:57:42;;;;;;;;;;;16.20;99.90;;;14.94;100.00;95514.53;10351071;28;2630;-75
2022/08/22 01:02:44;;;;;;;;;;;16.10;99.90;;;14.82;100.00;95517.81;10352636;28;2612;-74
2022/08/22 01:07:53;;;;;;;;;;;16.00;99.90;;;14.81;100.00;95516.19;10353129;28;2596;-74
2022/08/22 01:12:56;;;;;;;;;;;16.00;99.90;;;14.86;100.00;95520.69;10353237;28;2655;-74
2022/08/22 01:17:59;;;;;;;;;;;16.00;99.90;;;14.77;100.00;95526.03;10356862;28;2234;-73
2022/08/22 01:23:02;;;;;;;;;;;15.90;99.90;;;14.74;100.00;95509.59;10362085;28;2189;-73
2022/08/22 01:28:05;;;;;;;;;;;15.90;99.90;;;14.78;100.00;95507.88;10359392;28;2635;-73
2022/08/22 01:33:08;;;;;;;;;;;15.90;99.90;;;14.77;100.00;95498.19;10359980;28;2619;-73
2022/08/22 01:38:11;;;;;;;;;;;15.90;99.90;;;14.91;100.00;95498.91;10355837;28;2613;-72
2022/08/22 01:43:14;;;;;;;;;;;16.00;99.90;;;14.83;100.00;95502.38;10355284;28;2592;-73
2022/08/22 01:48:17;;;;;;;;;;;16.00;99.90;;;14.77;100.00;95509.00;10354241;28;2619;-71
2022/08/22 01:53:21;;;;;;;;;;;16.00;99.90;;;14.60;100.00;95507.75;10360015;28;2615;-72
2022/08/22 01:58:24;;;;;;;;;;;15.80;99.90;;;14.58;100.00;95507.25;10354439;28;2607;-74
2022/08/22 02:03:28;;;;;;;;;;;15.70;99.90;;;14.58;100.00;95504.53;10363485;28;2557;-71
2022/08/22 02:08:30;;;;;;;;;;;15.70;99.90;;;14.50;100.00;95505.25;10350055;28;2631;-77
2022/08/22 02:13:33;;;;;;;;;;;15.60;99.90;;;14.75;100.00;95506.56;10356025;28;2604;-73
2022/08/22 02:18:36;;;;;;;;;;;15.70;99.90;;;14.74;100.00;95504.19;10350357;28;2712;-76
2022/08/22 02:23:39;;;;;;;;;;;15.80;99.90;;;14.65;100.00;95503.31;10352132;28;2686;-73
2022/08/22 02:28:42;;;;;;;;;;;15.80;99.90;;;14.56;100.00;95508.66;10350977;28;2667;-75
2022/08/22 02:34:00;;;;;;;;;;;15.70;99.90;;;14.52;100.00;95513.09;10354887;28;2618;-74
2022/08/22 02:39:02;;;;;;;;;;;15.60;99.90;;;14.55;100.00;95513.25;10350866;28;2200;-73
2022/08/22 02:44:05;;;;;;;;;;;15.60;99.90;;;14.69;100.00;95523.22;10357629;28;2679;-74
2022/08/22 02:49:08;;;;;;;;;;;15.70;99.90;;;14.90;100.00;95518.16;10357555;28;2748;-73
2022/08/22 02:54:11;;;;;;;;;;;15.80;99.90;;;14.58;100.00;95517.28;10353861;28;2153;-73
2022/08/22 02:59:15;;;;;;;;;;;15.80;99.90;;;14.53;100.00;95518.19;10356210;28;2560;-73
2022/08/22 03:04:18;;;;;;;;;;;15.60;99.90;;;14.40;100.00;95515.47;10358916;28;2599;-73
2022/08/22 03:09:21;;;;;;;;;;;15.60;99.90;;;14.07;100.00;95519.13;10354850;28;2631;-75
2022/08/22 03:14:23;;;;;;;;;;;15.30;99.90;;;13.88;100.00;95520.34;10349643;28;2675;-73
2022/08/22 03:19:26;;;;;;;;;;;15.10;99.90;;;13.86;100.00;95525.22;10351620;28;2635;-73
2022/08/22 03:24:29;;;;;;;;;;;15.00;99.90;;;14.22;100.00;95528.81;10354079;28;2591;-73
2022/08/22 03:29:32;;;;;;;;;;;15.10;99.90;;;14.07;100.00;95518.34;10350568;28;2767;-73
2022/08/22 03:34:35;;;;;;;;;;;15.30;99.90;;;13.81;100.00;95520.75;10356631;28;2533;-72
2022/08/22 03:39:38;;;;;;;;;;;15.00;99.90;;;13.76;100.00;95531.66;10356630;28;2603;-74
2022/08/22 03:44:41;;;;;;;;;;;15.00;99.90;;;13.57;100.00;95534.41;10351283;28;2615;-73
2022/08/22 03:49:44;;;;;;;;;;;14.80;99.90;;;13.73;100.00;95538.44;10346591;28;2169;-73
2022/08/22 03:54:47;;;;;;;;;;;15.00;99.90;;;13.52;100.00;95543.41;10354374;28;2624;-74
2022/08/22 03:59:50;;;;;;;;;;;14.70;99.90;;;13.46;100.00;95541.91;10351072;28;2687;-74
2022/08/22 04:04:52;;;;;;;;;;;14.60;99.90;;;13.33;100.00;95548.06;10355336;28;2593;-75
2022/08/22 04:09:55;;;;;;;;;;;14.60;99.90;;;13.28;100.00;95545.44;10350984;28;2616;-74
2022/08/22 04:14:58;;;;;;;;;;;14.50;99.90;;;13.59;100.00;95553.81;10347497;28;2751;-74
2022/08/22 04:20:01;;;;;;;;;;;14.60;99.90;;;13.38;100.00;95545.28;10351781;28;2686;-72
2022/08/22 04:25:04;;;;;;;;;;;14.60;99.90;;;13.34;100.00;95538.88;10353244;28;2589;-72
2022/08/22 04:30:09;;;;;;;;;;;14.50;99.90;;;13.55;100.00;95547.44;10350974;28;2643;-74
2022/08/22 04:35:12;;;;;;;;;;;14.60;99.90;;;13.46;100.00;95544.59;10354263;28;2525;-74
2022/08/22 04:40:15;;;;;;;;;;;14.60;99.90;;;13.48;100.00;95550.50;10349232;28;2189;-72
2022/08/22 04:45:18;;;;;;;;;;;14.70;99.90;;;13.53;100.00;95546.91;10345416;28;2308;-73
2022/08/22 04:50:21;;;;;;;;;;;14.60;99.90;;;13.95;100.00;95547.75;10356064;28;2576;-72
2022/08/22 04:55:24;;;;;;;;;;;14.70;99.90;;;14.36;100.00;95553.13;10357199;28;3059;-73
2022/08/22 05:00:26;;;;;;;;;;;15.10;99.90;;;14.72;100.00;95549.69;10353439;28;2738;-75
2022/08/22 05:05:30;;;;;;;;;;;15.60;99.90;;;15.02;100.00;95551.69;10352172;28;2133;-73
2022/08/22 05:10:33;;;;;;;;;;;15.80;99.90;;;14.92;100.00;95554.63;10350432;28;2679;-73
2022/08/22 05:15:35;;;;;;;;;;;16.00;99.90;;;15.39;100.00;95565.97;10363652;28;2662;-74
2022/08/22 05:20:38;;;;;;;;;;;16.20;99.90;;;15.72;100.00;95563.81;10352347;28;2823;-75
2022/08/22 05:25:41;;;;;;;;;;;16.40;99.90;;;16.24;100.00;95560.50;10366045;28;2576;-73
2022/08/22 05:30:44;;;;;;;;;;;16.70;99.90;;;16.43;100.00;95566.47;10354849;28;2683;-70
2022/08/22 05:35:47;;;;;;;;;;;17.00;99.90;;;16.43;100.00;95572.69;10354096;28;2726;-73
2022/08/22 05:40:54;;;;;;;;;;;17.20;99.90;;;16.62;100.00;95568.91;10348694;28;2652;-74
2022/08/22 05:45:58;;;;;;;;;;;17.50;99.90;;;16.71;100.00;95569.75;10358629;28;2637;-77
2022/08/22 05:51:00;;;;;;;;;;;17.50;99.90;;;16.86;100.00;95579.31;10353270;28;2632;-73
2022/08/22 05:56:03;;;;;;;;;;;17.60;99.90;;;16.97;100.00;95578.69;10354242;28;2169;-72
2022/08/22 06:01:06;;;;;;;;;;;17.70;99.90;;;17.18;100.00;95583.53;10350875;28;2670;-73
2022/08/22 06:06:09;;;;;;;;;;;17.90;99.90;;;17.21;100.00;95580.94;10353116;28;2249;-74
2022/08/22 06:11:12;;;;;;;;;;;18.10;99.90;;;17.70;100.00;95573.38;10352939;28;2639;-73
2022/08/22 06:16:16;;;;;;;;;;;18.30;99.90;;;17.98;100.00;95584.66;10357508;28;2579;-73
2022/08/22 06:21:19;;;;;;;;;;;18.50;99.90;;;18.25;99.10;95583.44;10355045;28;2218;-72
2022/08/22 06:26:23;;;;;;;;;;;18.60;99.90;;;18.18;99.89;95590.50;10354590;28;2670;-70
2022/08/22 06:31:25;;;;;;;;;;;18.80;99.90;;;18.25;97.83;95578.00;10358304;28;2668;-72
2022/08/22 06:36:31;;;;;;;;;;;19.00;99.90;;;18.37;96.61;95583.53;10356567;28;2637;-71
2022/08/22 06:41:34;;;;;;;;;;;19.20;99.90;;;18.25;98.42;95583.44;10350441;28;2616;-70
2022/08/22 06:46:37;;;;;;;;;;;19.10;99.90;;;18.39;98.39;95590.59;10353419;28;2691;-70
2022/08/22 06:51:40;;;;;;;;;;;19.30;99.90;;;18.78;97.45;95584.81;10351627;28;2668;-71
2022/08/22 06:56:43;;;;;;;;;;;19.50;99.90;;;19.27;95.24;95585.06;10352348;28;2683;-70
2022/08/22 07:01:45;;;;;;;;;;;19.80;99.90;;;19.37;94.06;95581.16;10353108;28;2192;-71
2022/08/22 07:06:49;;;;;;;;;;;20.10;99.90;;;19.41;92.78;95591.06;10355912;28;2130;-71
2022/08/22 07:11:53;;;;;;;;;;;20.20;99.90;;;19.20;94.15;95590.25;10352695;28;2643;-71
2022/08/22 07:16:55;;;;;;;;;;;20.10;99.90;;;19.70;90.96;95592.88;10351490;28;2775;-71
2022/08/22 07:22:02;;;;;;;;;;;20.10;99.90;;;19.51;88.78;95589.84;10348182;28;2376;-70
2022/08/22 07:27:07;;;;;;;;;;;20.50;99.90;;;19.54;90.11;95582.94;10355445;28;2824;-69
2022/08/22 07:32:10;;;;;;;;;;;20.30;99.90;;;19.87;86.23;95593.84;10348237;28;2675;-70
2022/08/22 07:37:13;;;;;;;;;;;20.50;99.90;;;19.80;83.17;95591.69;10358758;28;2169;-71
2022/08/22 07:42:16;;;;;;;;;;;20.70;99.90;;;19.80;80.08;95586.22;10351526;28;2627;-71
2022/08/22 07:47:19;;;;;;;;;;;20.80;99.90;;;20.08;78.41;95586.38;10350784;28;2258;-71
2022/08/22 07:52:28;;;;;;;;;;;20.90;99.90;;;20.72;76.30;95572.09;10349874;28;2193;-74
2022/08/22 07:57:31;;;;;;;;;;;21.30;99.90;;;20.99;75.87;95581.53;10350816;28;2579;-70
2022/08/22 08:02:34;;;;;;;;;;;21.60;99.90;;;20.84;75.32;95574.03;10353137;28;2608;-70
2022/08/22 08:07:37;;;;;;;;;;;21.70;99.90;;;21.21;71.12;95568.47;10356003;28;2617;-72
2022/08/22 08:12:40;;;;;;;;;;;21.80;99.90;;;21.00;71.49;95577.66;10345606;28;2636;-70
2022/08/22 08:17:49;;;;;;;;;;;22.10;99.90;;;21.61;67.26;95573.13;10354015;28;2591;-70
2022/08/22 08:22:52;;;;;;;;;;;22.20;99.90;;;21.48;60.62;95578.66;10350487;28;2568;-70
2022/08/22 08:33:17;;;;;;;;;;;22.40;99.90;;;21.23;57.69;95574.38;10355035;28;2157;-71
2022/08/22 08:38:28;;;;;;;;;;;22.30;99.90;;;21.65;56.21;95569.38;10349298;28;2573;-71
2022/08/22 08:43:33;;;;;;;;;;;22.40;99.90;;;21.75;55.38;95562.56;10347053;28;2770;-70
2022/08/22 08:48:36;;;;;;;;;;;22.70;99.90;;;22.30;50.65;95566.38;10347228;28;2651;-72
2022/08/22 08:53:39;;;;;;;;;;;22.90;99.90;;;22.15;49.81;95567.97;10352766;28;2197;-72
2022/08/22 08:58:45;;;;;;;;;;;22.90;99.90;;;21.93;49.02;95566.59;10354348;28;2659;-72
2022/08/22 09:03:50;;;;;;;;;;;22.80;99.90;;;21.59;49.86;95566.09;10355417;28;2763;-71
2022/08/22 09:08:53;;;;;;;;;;;22.60;99.90;;;22.31;50.18;95557.81;10352463;28;2623;-71
2022/08/22 09:13:57;;;;;;;;;;;22.80;99.90;;;22.29;49.90;95553.84;10354887;28;2712;-72
2022/08/22 09:19:00;;;;;;;;;;;23.10;99.90;;;22.44;47.79;95549.50;10347536;28;2125;-73
2022/08/22 09:24:14;;;;;;;;;;;23.20;99.90;;;22.49;46.77;95557.44;10349668;28;2651;-72
2022/08/22 09:29:17;;;;;;;;;;;23.20;99.90;;;22.97;45.08;95552.69;10348071;28;2612;-78
2022/08/22 09:34:21;;;;;;;;;;;23.40;99.90;;;22.55;43.94;95554.06;10354639;28;2683;-76
2022/08/22 09:39:25;;;;;;;;;;;23.40;99.90;;;22.70;45.42;95546.19;10348019;28;2196;-72
2022/08/22 09:44:28;;;;;;;;;;;23.50;99.90;;;22.58;45.84;95549.81;10357774;28;2675;-72
2022/08/22 09:49:32;;;;;;;;;;;23.50;99.90;;;23.10;41.87;95549.47;10353377;28;2125;-71
2022/08/22 09:54:35;;;;;;;;;;;23.80;99.90;;;22.88;42.51;95553.69;10362684;28;2579;-71
2022/08/22 09:59:39;;;;;;;;;;;23.60;99.90;;;23.14;42.09;95555.03;10353720;28;2627;-71
2022/08/22 10:04:43;;;;;;;;;;;23.70;99.90;;;22.91;41.10;95549.44;10353326;28;2797;-71
2022/08/22 10:09:46;;;;;;;;;;;23.70;99.90;;;23.41;41.92;95553.22;10352769;28;3001;-72
2022/08/22 10:14:55;;;;;;;;;;;23.90;99.90;;;23.30;39.52;95542.06;10351988;28;2903;-70
2022/08/22 10:19:58;;;;;;;;;;;24.00;99.90;;;23.16;38.05;95550.78;10358089;28;2685;-72
2022/08/22 10:25:01;;;;;;;;;;;24.00;99.90;;;23.16;41.76;95552.72;10358555;28;2585;-75
2022/08/22 10:30:08;;;;;;;;;;;24.10;99.90;;;23.66;41.15;95543.56;10360056;28;2254;-73
2022/08/22 10:35:11;;;;;;;;;;;24.20;99.90;;;23.94;40.96;95540.56;10354908;28;2623;-73
2022/08/22 10:40:17;;;;;;;;;;;24.60;99.90;;;23.30;43.73;95536.56;10356990;28;2620;-72
2022/08/22 10:45:20;;;;;;;;;;;24.40;99.90;;;23.58;42.48;95541.81;10347308;28;2633;-73
2022/08/22 10:50:37;;;;;;;;;;;24.40;99.90;;;23.38;42.98;95530.06;10356586;28;2630;-73
2022/08/22 10:55:44;;;;;;;;;;;24.20;99.90;;;22.62;43.37;95543.28;10354274;28;2708;-72
2022/08/22 11:00:47;;;;;;;;;;;24.00;99.90;;;22.93;42.00;95547.94;10359064;28;2573;-72
2022/08/22 11:05:51;;;;;;;;;;;23.90;99.90;;;23.27;42.06;95539.22;10356664;28;2611;-73
2022/08/22 11:10:56;;;;;;;;;;;24.00;99.90;;;23.50;40.82;95545.59;10353662;28;2708;-72
2022/08/22 11:15:59;;;;;;;;;;;24.20;99.90;;;23.41;39.26;95551.31;10359895;28;2640;-71
2022/08/22 11:21:05;;;;;;;;;;;24.40;99.90;;;23.48;40.47;95536.94;10352058;28;2651;-72
2022/08/22 11:26:09;;;;;;;;;;;24.20;99.90;;;23.70;40.74;95541.69;10345729;28;2438;-71
2022/08/22 11:31:12;;;;;;;;;;;24.50;99.90;;;23.57;38.28;95542.97;10354003;28;2575;-71
2022/08/22 11:36:15;;;;;;;;;;;24.40;99.90;;;23.15;39.58;95546.44;10349440;28;2690;-72
2022/08/22 11:41:19;;;;;;;;;;;24.20;99.90;;;23.40;39.34;95535.97;10353288;28;2615;-73
2022/08/22 11:46:21;;;;;;;;;;;24.00;99.90;;;23.49;38.57;95549.47;10350551;28;2741;-72
2022/08/22 11:51:24;;;;;;;;;;;24.20;99.90;;;23.43;38.28;95534.47;10347492;28;2674;-74
2022/08/22 11:56:28;;;;;;;;;;;24.20;99.90;;;23.53;36.75;95533.09;10365884;28;2908;-73
2022/08/22 12:01:31;;;;;;;;;;;24.40;99.90;;;23.48;38.88;95536.94;10347705;28;2603;-72
2022/08/22 12:06:36;;;;;;;;;;;24.30;99.90;;;23.55;37.38;95553.53;10356110;28;2608;-72
2022/08/22 12:11:38;;;;;;;;;;;24.40;99.90;;;23.43;37.92;95531.72;10349841;28;2676;-73
2022/08/22 12:16:43;;;;;;;;;;;24.30;99.90;;;23.39;37.55;95525.38;10355957;28;2651;-72
2022/08/22 12:21:47;;;;;;;;;;;24.20;99.90;;;23.65;36.36;95535.69;10351134;28;2634;-71
2022/08/22 12:26:51;;;;;;;;;;;24.40;99.90;;;23.67;35.93;95522.44;10346013;28;2141;-73
2022/08/22 12:31:56;;;;;;;;;;;24.40;99.90;;;23.51;36.13;95527.16;10345108;28;2669;-72
2022/08/22 12:36:59;;;;;;;;;;;24.40;99.90;;;23.50;37.53;95509.91;10349493;28;2583;-72
2022/08/22 12:42:02;;;;;;;;;;;24.40;99.90;;;23.46;36.67;95506.31;10348803;28;2713;-71
2022/08/22 12:47:06;;;;;;;;;;;24.30;99.90;;;23.02;36.53;95508.53;10349485;28;2589;-73
2022/08/22 12:52:10;;;;;;;;;;;24.00;99.90;;;23.22;35.84;95512.09;10353735;28;2655;-72
2022/08/22 12:57:14;;;;;;;;;;;24.00;99.90;;;23.48;34.53;95498.53;10354115;28;2232;-71
2022/08/22 13:02:26;;;;;;;;;;;24.10;99.90;;;23.61;35.76;95490.94;10350065;28;2676;-73
2022/08/22 13:07:29;;;;;;;;;;;24.40;99.90;;;23.73;37.04;95504.50;10352806;28;2212;-71
2022/08/22 13:12:34;;;;;;;;;;;24.60;99.90;;;23.70;36.71;95499.72;10357438;28;2732;-71
2022/08/22 13:17:36;;;;;;;;;;;24.60;99.90;;;23.46;34.64;95501.59;10353899;28;2629;-70
2022/08/22 13:22:41;;;;;;;;;;;24.50;98.40;;;23.78;36.29;95489.66;10360883;28;2568;-73
2022/08/22 13:27:47;;;;;;;;;;;24.50;99.90;;;23.86;35.87;95496.91;10356511;28;2671;-74
2022/08/22 13:32:53;;;;;;;;;;;24.70;99.90;;;24.13;34.81;95484.78;10357722;28;2584;-71
2022/08/22 13:37:55;;;;;;;;;;;24.80;99.10;;;23.82;35.57;95490.53;10362909;28;2752;-72
2022/08/22 13:43:01;;;;;;;;;;;24.70;99.00;;;24.05;36.15;95485.84;10359473;28;2133;-73
2022/08/22 13:48:04;;;;;;;;;;;24.70;99.90;;;23.86;36.28;95494.94;10356425;28;2830;-71
2022/08/22 13:53:10;;;;;;;;;;;24.70;99.80;;;24.35;35.76;95476.91;10353825;28;2493;-70
2022/08/22 13:58:13;;;;;;;;;;;25.00;99.90;;;24.11;37.59;95470.66;10360200;28;2656;-70
2022/08/22 14:03:23;;;;;;;;;;;24.90;99.90;;;24.08;38.14;95476.88;10348956;28;2787;-70
2022/08/22 14:08:26;;;;;;;;;;;25.00;99.90;;;23.85;38.24;95467.84;10354080;28;2569;-76
2022/08/22 14:13:29;;;;;;;;;;;24.80;99.90;;;24.01;37.97;95474.00;10359684;28;2572;-71
2022/08/22 14:18:34;;;;;;;;;;;24.70;99.90;;;24.08;37.51;95467.84;10358207;28;2680;-71
2022/08/22 14:23:47;;;;;;;;;;;24.80;99.90;;;23.80;36.16;95473.66;10356600;28;2166;-70
2022/08/22 14:28:50;;;;;;;;;;;24.60;98.60;;;23.63;35.40;95470.22;10353288;28;2644;-72
2022/08/22 14:33:54;;;;;;;;;;;24.50;97.30;;;24.10;35.16;95466.28;10354490;28;2130;-71
2022/08/22 14:38:58;;;;;;;;;;;24.60;97.30;;;24.10;35.07;95471.00;10349489;28;2253;-72
2022/08/22 14:44:01;;;;;;;;;;;24.80;96.80;;;24.06;35.21;95464.69;10345602;28;2720;-71
2022/08/22 14:49:04;;;;;;;;;;;24.80;96.90;;;24.03;36.54;95460.69;10351336;28;2501;-72
2022/08/22 14:54:07;;;;;;;;;;;24.80;98.20;;;24.14;35.83;95464.41;10354864;28;2193;-72
2022/08/22 14:59:15;;;;;;;;;;;24.90;97.50;;;23.78;36.35;95457.53;10352879;28;2735;-73
2022/08/22 15:04:19;;;;;;;;;;;24.80;97.00;;;23.75;36.44;95458.28;10353164;28;2702;-71
2022/08/22 15:09:22;;;;;;;;;;;24.70;97.20;;;23.67;36.21;95468.34;10354466;28;2158;-73
2022/08/22 15:14:25;;;;;;;;;;;24.60;97.00;;;23.64;36.33;95471.00;10354958;28;2260;-71
2022/08/22 15:19:28;;;;;;;;;;;24.50;97.00;;;23.59;37.24;95472.06;10352213;28;2668;-71
2022/08/22 15:24:31;;;;;;;;;;;24.40;98.20;;;23.22;38.46;95468.22;10353104;28;2182;-72
2022/08/22 15:29:35;;;;;;;;;;;24.20;98.70;;;22.61;40.08;95472.41;10356299;28;2642;-71
2022/08/22 15:34:38;;;;;;;;;;;23.80;99.90;;;22.56;41.30;95462.53;10355269;28;2615;-71
2022/08/22 15:39:42;;;;;;;;;;;23.40;99.90;;;22.92;40.97;95471.56;10351091;28;2640;-72
2022/08/22 15:44:45;;;;;;;;;;;23.50;99.90;;;22.56;41.42;95469.97;10350828;28;2973;-71
2022/08/22 15:49:48;;;;;;;;;;;23.40;99.90;;;22.26;42.71;95475.13;10345132;28;2157;-71
2022/08/22 15:54:52;;;;;;;;;;;23.20;99.90;;;21.78;44.55;95469.66;10357908;28;2604;-74
2022/08/22 15:59:55;;;;;;;;;;;22.90;99.90;;;21.67;45.55;95484.22;10347580;28;2710;-71
2022/08/22 16:04:58;;;;;;;;;;;22.60;99.90;;;21.69;45.32;95479.97;10356983;28;2960;-73
2022/08/22 16:10:01;;;;;;;;;;;22.60;99.90;;;21.40;45.35;95492.13;10348193;28;2599;-71
2022/08/22 16:15:04;;;;;;;;;;;22.30;99.90;;;21.28;45.30;95495.69;10352974;28;2577;-72
2022/08/22 16:20:12;;;;;;;;;;;22.20;99.90;;;21.27;45.43;95494.09;10342733;28;2640;-71
2022/08/22 16:25:21;;;;;;;;;;;22.10;99.90;;;21.03;45.15;95502.38;10345829;28;2595;-75
2022/08/22 16:30:24;;;;;;;;;;;22.00;99.90;;;21.00;44.70;95495.69;10348379;28;2608;-75
2022/08/22 16:35:27;;;;;;;;;;;21.90;99.90;;;20.92;43.44;95502.06;10346990;28;2659;-71
2022/08/22 16:40:30;;;;;;;;;;;21.80;99.90;;;20.85;43.43;95504.59;10351375;28;2604;-71
2022/08/22 16:45:33;;;;;;;;;;;21.70;99.90;;;20.72;42.29;95511.22;10352038;28;2627;-72
2022/08/22 16:50:37;;;;;;;;;;;21.60;99.90;;;20.57;42.04;95509.22;10358914;28;2126;-74
2022/08/22 16:55:40;;;;;;;;;;;21.40;99.90;;;20.52;41.73;95512.97;10362746;28;2651;-71
2022/08/22 17:00:43;;;;;;;;;;;21.40;99.90;;;20.39;42.38;95514.88;10357759;28;2703;-72
2022/08/22 17:05:50;;;;;;;;;;;21.20;99.90;;;20.32;42.96;95522.84;10365865;28;2643;-72
2022/08/22 17:10:53;;;;;;;;;;;21.20;99.90;;;20.19;43.98;95505.66;10352843;28;2668;-72
2022/08/22 17:15:55;;;;;;;;;;;21.10;99.90;;;20.11;44.40;95522.16;10358130;28;2189;-72
2022/08/22 17:20:58;;;;;;;;;;;20.90;99.90;;;20.04;44.94;95528.19;10356916;28;2631;-74
2022/08/22 17:26:01;;;;;;;;;;;20.90;99.90;;;19.94;45.45;95532.16;10353271;28;2291;-72
2022/08/22 17:31:04;;;;;;;;;;;20.80;99.90;;;19.81;45.50;95527.81;10360953;28;2646;-71
2022/08/22 17:36:07;;;;;;;;;;;20.70;99.90;;;19.71;45.68;95533.69;10352757;28;2717;-71
2022/08/22 17:41:28;;;;;;;;;;;20.60;99.90;;;19.64;46.34;95533.44;10357165;28;2592;-72
2022/08/22 17:46:31;;;;;;;;;;;20.50;99.90;;;19.45;47.14;95537.44;10354888;28;2604;-71
2022/08/22 17:51:35;;;;;;;;;;;20.40;99.90;;;19.34;47.61;95536.28;10351814;28;2611;-72
2022/08/22 17:56:38;;;;;;;;;;;20.30;99.90;;;19.31;48.03;95544.31;10366908;28;2612;-72
2022/08/22 18:01:41;;;;;;;;;;;20.20;99.90;;;19.16;48.64;95540.31;10349640;28;2623;-73
2022/08/22 18:06:44;;;;;;;;;;;20.10;99.90;;;19.00;49.70;95536.56;10356616;28;2173;-72
2022/08/22 18:11:48;;;;;;;;;;;19.90;99.90;;;18.86;50.92;95543.09;10354412;28;2941;-72
2022/08/22 18:16:51;;;;;;;;;;;19.80;99.90;;;18.64;52.16;95551.56;10353178;28;2603;-73
2022/08/22 18:21:53;;;;;;;;;;;19.70;99.90;;;18.57;53.21;95551.25;10354474;28;2588;-67
2022/08/22 18:26:56;;;;;;;;;;;19.60;99.90;;;18.39;54.67;95538.91;10352525;28;2142;-68
2022/08/22 18:31:59;;;;;;;;;;;19.40;99.90;;;18.25;56.35;95550.00;10353432;28;2619;-69
2022/08/22 18:37:02;;;;;;;;;;;19.30;99.90;;;18.03;58.67;95542.91;10353263;28;2509;-69
2022/08/22 18:42:06;;;;;;;;;;;19.10;99.90;;;17.99;59.94;95548.19;10353492;28;2118;-68
2022/08/22 18:47:08;;;;;;;;;;;19.00;99.90;;;17.94;61.14;95551.09;10359210;28;2592;-69
2022/08/22 18:52:12;;;;;;;;;;;18.90;99.90;;;17.76;61.96;95555.00;10360353;28;2581;-69
2022/08/22 18:57:16;;;;;;;;;;;18.80;99.90;;;17.71;62.90;95557.84;10358708;28;2114;-76
2022/08/22 19:02:19;;;;;;;;;;;18.70;99.90;;;17.55;63.59;95568.44;10348934;28;2215;-77
2022/08/22 19:07:22;;;;;;;;;;;18.60;99.90;;;17.48;64.06;95568.94;10345496;28;2703;-76
2022/08/22 19:12:24;;;;;;;;;;;18.50;99.90;;;17.39;63.94;95576.31;10350787;28;2611;-76
2022/08/22 19:17:27;;;;;;;;;;;18.40;99.90;;;17.26;65.17;95575.34;10354221;28;2700;-75
2022/08/22 19:22:32;;;;;;;;;;;18.30;99.90;;;17.25;65.73;95584.63;10351346;28;2201;-75
2022/08/22 19:27:35;;;;;;;;;;;18.30;99.90;;;17.23;65.82;95586.06;10353465;28;2672;-76
2022/08/22 19:32:38;;;;;;;;;;;18.30;99.90;;;17.15;66.21;95589.56;10351353;28;2591;-78
2022/08/22 19:37:44;;;;;;;;;;;18.20;99.90;;;17.08;67.71;95591.97;10352084;28;2529;-77
2022/08/22 19:42:48;;;;;;;;;;;18.10;99.90;;;17.07;67.00;95599.31;10347879;28;2580;-77
2022/08/22 19:47:51;;;;;;;;;;;18.00;99.90;;;16.89;68.38;95592.28;10353447;28;2588;-78
2022/08/22 19:52:56;;;;;;;;;;;17.90;99.90;;;16.81;68.35;95601.22;10353714;28;2632;-79
2022/08/22 19:57:59;;;;;;;;;;;17.80;99.90;;;16.73;68.74;95609.03;10355603;28;2639;-78
2022/08/22 20:03:03;;;;;;;;;;;17.70;99.90;;;16.71;68.64;95613.16;10353064;28;2658;-77
2022/08/22 20:08:06;;;;;;;;;;;17.60;99.90;;;16.53;71.06;95601.44;10348570;28;2288;-79
2022/08/22 20:13:10;;;;;;;;;;;17.60;99.90;;;16.67;68.88;95607.56;10347347;28;3015;-78
2022/08/22 20:18:13;;;;;;;;;;;17.60;99.90;;;16.51;70.43;95603.66;10349718;28;2806;-79
2022/08/22 20:23:36;;;;;;;;;;;17.60;99.90;;;16.37;72.25;95619.28;10352164;28;2862;-78
2022/08/22 20:28:39;;;;;;;;;;;17.50;99.90;;;16.36;72.55;95614.97;10349296;28;2945;-78
2022/08/22 20:33:45;;;;;;;;;;;17.40;99.90;;;16.08;73.46;95617.88;10348593;28;2870;-78
2022/08/22 20:38:49;;;;;;;;;;;17.30;99.90;;;16.05;74.25;95617.69;10348879;28;3149;-79
2022/08/22 20:43:57;;;;;;;;;;;17.10;99.90;;;16.13;74.48;95619.66;10348317;28;2962;-78
2022/08/22 20:49:00;;;;;;;;;;;17.10;99.90;;;16.11;74.35;95613.75;10346077;28;2551;-78
2022/08/22 20:54:03;;;;;;;;;;;17.10;99.90;;;16.01;74.85;95614.00;10350729;28;2885;-78
2022/08/22 20:59:15;;;;;;;;;;;17.00;99.90;;;16.05;74.50;95610.38;10349309;28;2451;-79
2022/08/22 21:04:18;;;;;;;;;;;16.90;99.90;;;16.04;75.15;95608.78;10352043;28;2888;-78
2022/08/22 21:14:44;;;;;;;;;;;16.90;99.90;;;15.64;78.62;95613.31;10355584;28;2461;-79
2022/08/22 21:19:47;;;;;;;;;;;16.70;99.90;;;15.66;78.66;95617.34;10349782;28;2899;-78
2022/08/22 21:24:50;;;;;;;;;;;16.70;99.90;;;15.61;78.85;95620.13;10349221;28;2494;-78
2022/08/22 21:29:53;;;;;;;;;;;16.60;99.90;;;15.53;79.93;95607.34;10348216;28;2899;-78
2022/08/22 21:34:56;;;;;;;;;;;16.60;99.90;;;15.67;78.41;95610.81;10362853;28;2981;-77
2022/08/22 21:39:59;;;;;;;;;;;16.60;99.90;;;15.70;78.90;95600.44;10358228;28;2911;-77
2022/08/22 21:45:02;;;;;;;;;;;16.60;99.90;;;15.48;80.33;95603.94;10357838;28;2901;-77
2022/08/22 21:50:05;;;;;;;;;;;16.50;99.90;;;15.21;81.30;95602.97;10360083;28;2586;-76
2022/08/22 21:55:11;;;;;;;;;;;16.40;99.90;;;15.30;82.42;95603.03;10362621;28;2830;-77
2022/08/22 22:00:14;;;;;;;;;;;16.30;99.90;;;15.34;82.31;95607.53;10351512;28;3013;-77
2022/08/22 22:05:19;;;;;;;;;;;16.30;99.90;;;15.31;83.58;95604.63;10357008;28;2928;-77
2022/08/22 22:10:22;;;;;;;;;;;16.30;99.90;;;15.20;84.89;95609.47;10356040;28;3029;-77
2022/08/22 22:15:25;;;;;;;;;;;16.30;99.90;;;15.25;85.18;95611.25;10357888;28;2921;-77
2022/08/22 22:20:28;;;;;;;;;;;16.20;99.90;;;15.16;85.49;95602.28;10360805;28;2903;-77
2022/08/22 22:25:31;;;;;;;;;;;16.20;99.90;;;15.01;85.88;95603.41;10353157;28;2861;-77
2022/08/22 22:30:43;;;;;;;;;;;16.10;99.90;;;14.81;86.95;95608.19;10353729;28;2961;-77
2022/08/22 22:35:46;;;;;;;;;;;15.90;99.90;;;14.74;87.13;95615.91;10356492;28;2873;-76
2022/08/22 22:40:49;;;;;;;;;;;15.90;99.90;;;14.64;87.20;95601.81;10359323;28;2928;-77
2022/08/22 22:45:52;;;;;;;;;;;15.80;99.90;;;14.50;89.02;95599.91;10356888;28;3013;-75
2022/08/22 22:50:55;;;;;;;;;;;15.70;99.90;;;14.54;90.18;95598.22;10354693;28;2888;-75
2022/08/22 22:55:58;;;;;;;;;;;15.50;99.90;;;14.70;90.38;95589.78;10350984;28;2562;-76
2022/08/22 23:01:02;;;;;;;;;;;15.60;99.90;;;14.66;90.33;95586.09;10355206;28;2919;-76
2022/08/22 23:06:05;;;;;;;;;;;15.70;99.90;;;14.68;91.53;95583.88;10356027;28;2944;-75
2022/08/22 23:11:08;;;;;;;;;;;15.70;99.90;;;14.75;92.61;95586.94;10354406;28;2939;-77
2022/08/22 23:16:12;;;;;;;;;;;15.60;99.90;;;14.74;92.74;95579.94;10369005;28;2865;-77
2022/08/22 23:21:15;;;;;;;;;;;15.70;99.90;;;14.76;93.24;95575.84;10350739;28;2793;-76